Time;durP1;ratioP1;P1;durP2;ratioP2;P2;SDS_P1;SDS_P2;PMS_P1;PMS_P2;Temp;Humidity;BMP_temperature;BMP_pressure;BME280_temperature;BME280_humidity;BME280_pressure;Samples;Min_cycle;Max_cycle;Signal;HPM_P1;HPM_P2
2022/11/21 00:00:46;;;;;;;26.87;8.77;;;5.40;99.90;;;;;;5072038;28;20203;-57
2022/11/21 00:03:12;;;;;;;28.33;9.43;;;5.40;99.90;;;;;;5074241;28;20632;-57
2022/11/21 00:05:40;;;;;;;26.17;9.20;;;5.50;99.90;;;;;;5082449;28;20251;-57
2022/11/21 00:08:06;;;;;;;29.20;9.00;;;5.60;99.90;;;;;;5077489;28;20208;-57
2022/11/21 00:10:32;;;;;;;33.93;9.50;;;5.30;99.90;;;;;;5082899;28;21703;-57
2022/11/21 00:12:58;;;;;;;34.23;10.00;;;5.50;99.90;;;;;;5071290;28;20203;-57
2022/11/21 00:15:25;;;;;;;36.93;9.63;;;5.50;99.90;;;;;;5053420;28;20211;-57
2022/11/21 00:17:51;;;;;;;28.40;9.00;;;5.60;99.90;;;;;;5071738;28;20229;-57
2022/11/21 00:20:19;;;;;;;28.87;10.10;;;5.60;99.90;;;;;;5081611;28;20208;-57
2022/11/21 00:22:45;;;;;;;30.07;9.30;;;5.60;99.90;;;;;;5071085;28;20215;-58
2022/11/21 00:25:12;;;;;;;27.77;9.20;;;5.60;99.90;;;;;;5053829;28;20196;-57
2022/11/21 00:27:37;;;;;;;33.80;9.47;;;5.60;99.90;;;;;;5071216;28;20196;-57
2022/11/21 00:30:05;;;;;;;25.97;7.97;;;5.70;99.90;;;;;;5071039;28;20184;-57
2022/11/21 00:32:31;;;;;;;28.77;6.93;;;5.80;99.90;;;;;;5084696;28;20215;-57
2022/11/21 00:34:56;;;;;;;31.90;7.97;;;5.90;99.90;;;;;;5088773;28;20186;-56
2022/11/21 00:37:22;;;;;;;32.27;8.40;;;6.00;99.90;;;;;;5076306;28;20180;-57
2022/11/21 00:39:47;;;;;;;21.37;6.37;;;6.00;99.90;;;;;;5087842;28;20696;-57
2022/11/21 00:42:13;;;;;;;30.77;8.20;;;6.00;99.90;;;;;;5087876;28;20223;-56
2022/11/21 00:44:39;;;;;;;26.47;7.43;;;6.00;99.90;;;;;;5090660;28;20203;-56
2022/11/21 00:47:04;;;;;;;28.70;7.47;;;5.90;99.90;;;;;;5072265;28;20192;-57
2022/11/21 00:49:30;;;;;;;22.83;5.93;;;5.80;99.90;;;;;;5071021;28;20184;-57
2022/11/21 00:51:55;;;;;;;24.37;5.80;;;5.80;99.90;;;;;;5070874;28;20238;-56
2022/11/21 00:54:21;;;;;;;22.73;4.43;;;5.90;99.90;;;;;;5085129;28;20245;-57
2022/11/21 00:56:47;;;;;;;22.43;4.63;;;6.10;99.90;;;;;;5077054;28;20712;-57
2022/11/21 00:59:12;;;;;;;38.67;4.77;;;6.10;99.90;;;;;;5072240;28;20172;-57
2022/11/21 01:01:38;;;;;;;35.30;4.00;;;6.20;99.90;;;;;;5069194;28;20280;-57
2022/11/21 01:04:04;;;;;;;20.33;5.27;;;6.20;99.90;;;;;;5087431;28;20176;-57
2022/11/21 01:06:29;;;;;;;18.60;5.20;;;6.20;99.90;;;;;;5086084;28;20179;-57
2022/11/21 01:08:55;;;;;;;28.87;6.13;;;6.20;99.90;;;;;;5089794;28;20286;-57
2022/11/21 01:11:22;;;;;;;28.60;5.40;;;6.10;99.90;;;;;;5078539;28;20173;-57
2022/11/21 01:13:48;;;;;;;23.07;5.07;;;6.10;99.90;;;;;;5077938;28;20187;-57
2022/11/21 01:16:19;;;;;;;29.53;6.43;;;6.10;99.90;;;;;;5091038;28;20212;-57
2022/11/21 01:18:45;;;;;;;23.23;5.93;;;6.10;99.90;;;;;;5074628;28;20226;-57
2022/11/21 01:21:16;;;;;;;28.13;6.30;;;6.00;99.90;;;;;;5074880;28;21442;-57
2022/11/21 01:23:42;;;;;;;27.27;6.13;;;6.00;99.90;;;;;;5076152;28;20186;-58
2022/11/21 01:26:13;;;;;;;25.77;5.33;;;6.00;99.90;;;;;;5075683;28;20183;-57
2022/11/21 01:28:39;;;;;;;22.60;5.73;;;6.10;99.90;;;;;;5076949;28;20169;-57
2022/11/21 01:31:06;;;;;;;20.17;4.90;;;6.10;99.90;;;;;;5088801;28;20532;-57
2022/11/21 01:33:32;;;;;;;24.90;4.23;;;6.00;99.90;;;;;;5078044;28;20207;-56
2022/11/21 01:36:25;;;;;;;25.40;3.93;;;6.50;99.90;;;;;;5085815;28;20200;-57
2022/11/21 01:38:56;;;;;;;29.33;3.83;;;6.20;99.90;;;;;;5073789;28;20193;-55
2022/11/21 01:41:30;;;;;;;32.80;3.53;;;6.20;99.90;;;;;;5093021;28;20230;-55
2022/11/21 01:43:56;;;;;;;22.47;4.90;;;6.60;99.90;;;;;;5090876;28;20183;-56
2022/11/21 01:46:23;;;;;;;22.73;4.67;;;6.50;99.90;;;;;;5082123;28;20180;-56
2022/11/21 01:49:05;;;;;;;20.03;5.30;;;6.40;99.90;;;;;;5083665;28;20180;-55
2022/11/21 01:51:52;;;;;;;29.43;6.77;;;6.20;99.90;;;;;;5082507;28;20211;-55
2022/11/21 01:54:32;;;;;;;30.17;6.37;;;6.20;99.90;;;;;;5090821;28;20176;-55
2022/11/21 01:57:07;;;;;;;25.27;5.70;;;6.20;99.90;;;;;;5074844;28;20202;-55
2022/11/21 01:59:47;;;;;;;28.90;6.70;;;6.10;99.90;;;;;;5073931;28;20168;-55
2022/11/21 02:02:16;;;;;;;24.17;5.27;;;6.10;99.90;;;;;;5089785;28;20744;-55
2022/11/21 02:04:43;;;;;;;21.80;5.23;;;6.00;99.90;;;;;;5078656;28;20172;-55
2022/11/21 02:07:11;;;;;;;25.23;6.13;;;6.00;99.90;;;;;;5092971;28;20696;-55
2022/11/21 02:09:41;;;;;;;29.13;5.90;;;6.10;99.90;;;;;;5077740;28;20194;-55
2022/11/21 02:12:29;;;;;;;28.43;6.20;;;6.10;99.90;;;;;;5078750;28;20179;-55
2022/11/21 02:14:57;;;;;;;24.17;5.83;;;6.10;99.90;;;;;;5075070;28;20200;-55
2022/11/21 02:17:22;;;;;;;34.47;7.00;;;6.30;99.90;;;;;;5084399;28;20255;-55
2022/11/21 02:20:02;;;;;;;26.07;4.40;;;6.00;99.90;;;;;;5093606;28;20659;-55
2022/11/21 02:22:58;;;;;;;21.83;3.73;;;6.10;99.90;;;;;;5077517;28;20241;-55
2022/11/21 02:25:33;;;;;;;22.30;4.60;;;6.20;99.90;;;;;;5092634;28;20179;-55
2022/11/21 02:28:08;;;;;;;27.73;4.40;;;6.30;99.90;;;;;;5076988;28;20658;-55
2022/11/21 02:30:39;;;;;;;21.90;6.20;;;6.30;99.90;;;;;;5091283;28;20744;-55
2022/11/21 02:33:05;;;;;;;23.07;6.07;;;;;;;;;;5093392;28;20198;-55
2022/11/21 02:35:32;;;;;;;32.90;6.40;;;6.20;99.90;;;;;;5082724;28;20200;-56
2022/11/21 02:38:10;;;;;;;26.30;5.77;;;6.30;99.90;;;;;;5073598;28;20172;-56
2022/11/21 02:40:41;;;;;;;24.23;6.43;;;6.20;99.90;;;;;;5073280;28;20254;-56
2022/11/21 02:43:27;;;;;;;31.00;5.93;;;6.10;99.90;;;;;;5081792;28;20203;-56
2022/11/21 02:45:52;;;;;;;30.13;6.10;;;6.20;99.90;;;;;;5091191;28;20662;-56
2022/11/21 02:48:18;;;;;;;23.63;6.67;;;6.20;99.90;;;;;;5073191;28;20238;-56
2022/11/21 02:50:45;;;;;;;25.47;5.13;;;6.20;99.90;;;;;;5083123;28;20241;-56
2022/11/21 02:53:15;;;;;;;27.10;5.67;;;6.20;99.90;;;;;;5091679;28;20690;-56
2022/11/21 02:55:41;;;;;;;23.70;5.43;;;6.30;99.90;;;;;;5072803;28;20193;-56
2022/11/21 02:58:07;;;;;;;27.37;6.53;;;6.10;99.90;;;;;;5072994;28;20168;-56
2022/11/21 03:00:36;;;;;;;28.93;5.73;;;6.20;99.90;;;;;;5089171;28;20176;-56
2022/11/21 03:03:02;;;;;;;30.80;5.97;;;6.20;99.90;;;;;;5076481;28;20247;-56
2022/11/21 03:05:28;;;;;;;20.57;5.70;;;6.20;99.90;;;;;;5076585;28;20575;-59
2022/11/21 03:07:54;;;;;;;33.73;6.30;;;6.20;99.90;;;;;;5076423;28;20211;-56
2022/11/21 03:10:20;;;;;;;28.73;5.03;;;6.30;99.90;;;;;;5072280;28;20204;-56
2022/11/21 03:12:45;;;;;;;33.53;4.83;;;6.50;99.90;;;;;;5072068;28;20172;-56
2022/11/21 03:15:13;;;;;;;31.37;4.70;;;6.40;99.90;;;;;;5074204;28;20255;-56
2022/11/21 03:17:39;;;;;;;23.90;3.73;;;6.20;99.90;;;;;;5086796;28;20183;-55
2022/11/21 03:20:05;;;;;;;23.13;4.33;;;6.40;99.90;;;;;;5085182;28;20714;-55
2022/11/21 03:22:31;;;;;;;34.43;4.77;;;6.50;99.90;;;;;;5073542;28;20683;-55
2022/11/21 03:24:56;;;;;;;34.10;4.50;;;6.60;99.90;;;;;;5071362;28;20177;-55
2022/11/21 03:27:22;;;;;;;31.00;4.60;;;6.60;99.90;;;;;;5080975;28;20267;-56
2022/11/21 03:29:48;;;;;;;28.33;4.00;;;6.70;99.90;;;;;;5085562;28;20226;-56
2022/11/21 03:32:14;;;;;;;29.07;3.90;;;6.70;99.90;;;;;;5090631;28;20611;-55
2022/11/21 03:34:39;;;;;;;28.30;3.80;;;8.40;99.90;;;;;;5089623;28;20188;-58
2022/11/21 03:37:05;;;;;;;30.77;3.87;;;7.00;99.90;;;;;;5090399;28;20172;-55
2022/11/21 03:39:31;;;;;;;27.47;3.57;;;;;;;;;;5079365;28;20181;-56
2022/11/21 03:41:57;;;;;;;25.07;3.70;;;6.90;99.90;;;;;;5072836;28;20224;-56
2022/11/21 03:44:22;;;;;;;27.90;3.50;;;7.20;99.90;;;;;;5090135;28;20192;-56
2022/11/21 03:46:48;;;;;;;32.70;3.67;;;7.00;99.90;;;;;;5083146;28;20210;-57
2022/11/21 03:49:15;;;;;;;22.37;4.27;;;7.00;99.90;;;;;;5071969;28;20229;-57
2022/11/21 03:51:42;;;;;;;20.10;3.43;;;7.00;99.90;;;;;;5082955;28;20262;-56
2022/11/21 03:54:08;;;;;;;26.07;3.43;;;7.00;99.90;;;;;;5089686;28;20249;-57
2022/11/21 03:56:34;;;;;;;23.10;3.67;;;7.00;99.90;;;;;;5075829;28;20185;-57
2022/11/21 03:58:59;;;;;;;29.10;3.47;;;7.00;99.90;;;;;;5080467;28;20653;-57
2022/11/21 04:01:25;;;;;;;28.70;3.50;;;7.00;99.90;;;;;;5074743;28;20291;-57
2022/11/21 04:03:51;;;;;;;30.70;3.50;;;7.00;99.90;;;;;;5079890;28;20249;-57
2022/11/21 04:06:19;;;;;;;23.00;3.50;;;7.00;99.90;;;;;;5082514;28;20184;-57
2022/11/21 04:08:45;;;;;;;31.00;4.40;;;7.30;99.90;;;;;;5073707;28;20220;-57
2022/11/21 04:11:11;;;;;;;28.93;3.57;;;7.00;99.90;;;;;;5086884;28;20181;-57
2022/11/21 04:13:37;;;;;;;30.10;3.70;;;7.20;99.90;;;;;;5073716;28;20188;-57
2022/11/21 04:16:03;;;;;;;28.50;3.70;;;7.50;99.90;;;;;;5090073;28;20772;-57
2022/11/21 04:18:29;;;;;;;37.83;3.70;;;7.10;99.90;;;;;;5070268;28;20678;-57
2022/11/21 04:20:59;;;;;;;23.47;3.10;;;7.10;99.90;;;;;;5080388;28;20187;-57
2022/11/21 04:23:26;;;;;;;22.00;2.70;;;7.10;99.90;;;;;;5080738;28;20181;-57
2022/11/21 04:25:51;;;;;;;23.17;3.10;;;7.20;99.90;;;;;;5086181;28;20199;-57
2022/11/21 04:28:17;;;;;;;31.00;3.80;;;7.20;99.90;;;;;;5075188;28;20211;-57
2022/11/21 04:30:43;;;;;;;21.73;4.07;;;7.30;99.90;;;;;;5088206;28;20549;-57
2022/11/21 04:33:13;;;;;;;26.20;3.20;;;7.80;99.90;;;;;;5071095;28;20176;-57
2022/11/21 04:35:39;;;;;;;30.97;3.37;;;7.30;99.90;;;;;;5071015;28;20173;-57
2022/11/21 04:38:05;;;;;;;22.63;3.20;;;7.30;99.90;;;;;;5071343;28;20740;-57
2022/11/21 04:40:31;;;;;;;20.77;3.40;;;7.40;99.90;;;;;;5083438;28;20212;-57
2022/11/21 04:42:56;;;;;;;33.77;3.40;;;7.40;99.90;;;;;;5070836;28;20265;-57
2022/11/21 04:45:22;;;;;;;29.33;3.57;;;7.50;99.90;;;;;;5083260;28;20178;-57
2022/11/21 04:47:49;;;;;;;24.70;3.40;;;7.40;99.90;;;;;;5073987;28;20317;-57
2022/11/21 04:50:16;;;;;;;24.07;3.27;;;7.40;99.90;;;;;;5075469;28;20168;-57
2022/11/21 04:52:41;;;;;;;30.97;3.50;;;7.50;99.90;;;;;;5091009;28;20657;-57
2022/11/21 04:55:08;;;;;;;29.50;3.40;;;7.40;99.90;;;;;;5090869;28;20176;-57
2022/11/21 04:57:34;;;;;;;22.20;3.10;;;;;;;;;;5081395;28;20181;-57
2022/11/21 05:00:00;;;;;;;29.87;3.60;;;7.40;99.90;;;;;;5083858;28;20325;-57
2022/11/21 05:02:26;;;;;;;23.50;3.20;;;7.80;99.90;;;;;;5090653;28;20302;-57
2022/11/21 05:04:51;;;;;;;27.93;4.20;;;7.40;99.90;;;;;;5072606;28;20183;-57
2022/11/21 05:07:17;;;;;;;22.20;3.67;;;7.40;99.90;;;;;;5073321;28;20643;-54
2022/11/21 05:09:43;;;;;;;21.90;3.20;;;7.50;99.90;;;;;;5074310;28;20184;-56
2022/11/21 05:14:54;;;;;;;25.77;3.87;;;7.50;99.90;;;;;;5078063;28;20191;-58
2022/11/21 05:17:20;;;;;;;25.83;3.33;;;7.50;99.90;;;;;;5082893;28;20744;-56
2022/11/21 05:19:45;;;;;;;29.47;3.40;;;7.50;99.90;;;;;;5070515;28;20236;-56
2022/11/21 05:22:11;;;;;;;32.57;3.47;;;7.40;99.90;;;;;;5069072;28;20197;-56
2022/11/21 05:24:37;;;;;;;26.37;3.43;;;7.60;99.90;;;;;;5073842;28;20232;-56
2022/11/21 05:27:03;;;;;;;28.27;2.70;;;7.60;99.90;;;;;;5080093;28;20187;-58
2022/11/21 05:29:28;;;;;;;21.40;3.30;;;7.60;99.90;;;;;;5085632;28;20251;-56
2022/11/21 05:31:54;;;;;;;30.30;3.83;;;7.60;99.90;;;;;;5070540;28;20181;-56
2022/11/21 05:34:20;;;;;;;36.70;3.80;;;;;;;;;;5074281;28;20214;-56
2022/11/21 05:36:46;;;;;;;37.50;3.93;;;7.60;99.90;;;;;;5088426;28;20686;-55
2022/11/21 05:39:12;;;;;;;26.53;2.97;;;7.60;99.90;;;;;;5073256;28;20191;-55
2022/11/21 05:41:37;;;;;;;22.63;3.03;;;7.70;99.90;;;;;;5088743;28;20227;-56
2022/11/21 05:44:03;;;;;;;27.60;3.17;;;7.70;99.90;;;;;;5090312;28;20213;-56
2022/11/21 05:46:28;;;;;;;29.23;3.23;;;7.70;99.90;;;;;;5084298;28;20190;-56
2022/11/21 05:48:54;;;;;;;26.37;3.47;;;7.70;99.90;;;;;;5070271;28;20687;-56
2022/11/21 05:51:21;;;;;;;29.90;3.10;;;7.80;99.90;;;;;;5088588;28;20160;-56
2022/11/21 05:53:47;;;;;;;24.13;3.00;;;9.60;99.90;;;;;;5090437;28;20168;-56
2022/11/21 05:56:15;;;;;;;25.57;3.33;;;7.70;99.90;;;;;;5082665;28;20382;-56
2022/11/21 05:58:41;;;;;;;19.60;3.27;;;7.80;99.90;;;;;;5085902;28;20213;-56
2022/11/21 06:01:08;;;;;;;27.77;3.70;;;8.00;99.90;;;;;;5076112;28;20279;-56
2022/11/21 06:03:37;;;;;;;30.10;3.83;;;7.80;99.90;;;;;;5082324;28;20182;-56
2022/11/21 06:06:04;;;;;;;25.80;3.23;;;7.30;99.90;;;;;;5094099;28;20179;-56
2022/11/21 06:08:34;;;;;;;29.70;3.87;;;7.80;99.90;;;;;;5093950;28;20176;-56
2022/11/21 06:11:00;;;;;;;19.97;3.03;;;7.80;99.90;;;;;;5093939;28;20168;-58
2022/11/21 06:13:26;;;;;;;20.80;3.30;;;7.90;99.90;;;;;;5093938;28;20171;-56
2022/11/21 06:16:00;;;;;;;24.87;3.33;;;7.90;99.90;;;;;;5093549;28;20652;-56
2022/11/21 06:18:27;;;;;;;32.20;4.03;;;7.90;99.90;;;;;;5093049;28;20259;-56
2022/11/21 06:20:53;;;;;;;30.20;3.63;;;7.90;99.90;;;;;;5093025;28;20167;-56
2022/11/21 06:23:18;;;;;;;28.07;3.87;;;7.80;99.90;;;;;;5093068;28;20212;-56
2022/11/21 06:25:44;;;;;;;25.50;3.50;;;7.90;99.90;;;;;;5091448;28;20170;-56
2022/11/21 06:28:10;;;;;;;25.03;3.53;;;8.20;99.90;;;;;;5092985;28;20256;-56
2022/11/21 06:30:37;;;;;;;24.53;2.70;;;8.10;99.90;;;;;;5092445;28;20164;-56
2022/11/21 06:33:06;;;;;;;31.00;3.47;;;7.90;99.90;;;;;;5091811;28;20179;-56
2022/11/21 06:35:32;;;;;;;28.20;3.20;;;8.00;99.90;;;;;;5087930;28;20188;-56
2022/11/21 06:37:57;;;;;;;20.47;3.27;;;8.00;99.90;;;;;;5073600;28;20177;-56
2022/11/21 06:40:24;;;;;;;29.97;3.80;;;;;;;;;;5080620;28;20285;-57
2022/11/21 06:42:49;;;;;;;33.50;3.73;;;8.10;99.90;;;;;;5073188;28;20275;-57
2022/11/21 06:45:15;;;;;;;27.83;4.17;;;8.00;99.90;;;;;;5076780;28;20267;-57
2022/11/21 06:47:40;;;;;;;22.37;3.60;;;8.10;99.90;;;;;;5077018;28;20188;-57
2022/11/21 06:50:07;;;;;;;27.03;3.80;;;8.30;99.90;;;;;;5090455;28;20172;-58
2022/11/21 06:52:33;;;;;;;29.90;3.70;;;7.90;99.90;;;;;;5085991;28;20184;-57
2022/11/21 06:54:58;;;;;;;48.03;3.80;;;8.10;99.90;;;;;;5080905;28;20176;-57
2022/11/21 06:57:24;;;;;;;19.67;3.60;;;8.00;99.90;;;;;;5089899;28;20203;-57
2022/11/21 06:59:50;;;;;;;34.63;3.60;;;8.00;99.90;;;;;;5084551;28;20191;-57
2022/11/21 07:02:16;;;;;;;30.97;3.70;;;;;;;;;;5090903;28;20211;-57
2022/11/21 07:04:41;;;;;;;33.00;4.17;;;8.10;99.90;;;;;;5090767;28;20195;-57
2022/11/21 07:07:07;;;;;;;26.93;4.10;;;8.10;99.90;;;;;;5086099;28;20184;-60
2022/11/21 07:09:34;;;;;;;27.63;4.03;;;8.30;99.90;;;;;;5075766;28;20188;-57
2022/11/21 07:13:20;;;;;;;22.30;3.17;;;8.20;99.90;;;;;;5071083;28;20173;-57
2022/11/21 07:14:46;;;;;;;27.37;3.90;;;8.10;99.90;;;;;;5071572;28;20184;-57
2022/11/21 07:17:12;;;;;;;20.53;3.57;;;7.80;99.90;;;;;;5074632;28;20517;-57
2022/11/21 07:19:39;;;;;;;28.03;4.17;;;8.20;99.90;;;;;;5080116;28;20216;-57
2022/11/21 07:22:05;;;;;;;27.77;2.93;;;8.10;99.90;;;;;;5091435;28;20199;-57
2022/11/21 07:24:31;;;;;;;35.10;3.60;;;8.10;99.90;;;;;;5090026;28;20256;-57
2022/11/21 07:26:56;;;;;;;21.83;3.97;;;8.10;99.90;;;;;;5090496;28;20207;-57
2022/11/21 07:29:22;;;;;;;21.10;3.73;;;8.00;99.90;;;;;;5088848;28;20645;-57
2022/11/21 07:31:48;;;;;;;29.03;4.63;;;;;;;;;;5071987;28;20180;-57
2022/11/21 07:34:13;;;;;;;28.73;4.00;;;8.00;99.90;;;;;;5085440;28;20188;-57
2022/11/21 07:36:39;;;;;;;29.37;3.63;;;8.00;99.90;;;;;;5090192;28;20211;-57
2022/11/21 07:39:05;;;;;;;26.93;3.97;;;7.60;99.90;;;;;;5081743;28;20633;-57
2022/11/21 07:41:31;;;;;;;27.07;3.83;;;8.10;99.90;;;;;;5086941;28;20667;-57
2022/11/21 07:43:57;;;;;;;26.73;3.87;;;8.20;99.90;;;;;;5073123;28;20176;-56
2022/11/21 07:46:22;;;;;;;24.17;3.67;;;8.10;99.90;;;;;;5087133;28;20271;-58
2022/11/21 07:48:49;;;;;;;19.30;3.30;;;8.20;99.90;;;;;;5078690;28;20208;-57
2022/11/21 07:51:14;;;;;;;38.67;4.87;;;8.10;99.90;;;;;;5076337;28;20176;-56
2022/11/21 07:53:40;;;;;;;23.57;3.53;;;8.10;99.90;;;;;;5071325;28;20184;-57
2022/11/21 07:56:08;;;;;;;25.13;3.17;;;8.10;99.90;;;;;;5087025;28;20579;-56
2022/11/21 07:58:34;;;;;;;22.07;4.20;;;;;;;;;;5086376;28;20181;-56
2022/11/21 08:01:04;;;;;;;28.93;3.70;;;8.10;99.90;;;;;;5071697;28;20173;-55
2022/11/21 08:03:31;;;;;;;26.60;3.40;;;7.90;99.90;;;;;;5072954;28;20264;-58
2022/11/21 08:06:01;;;;;;;23.87;3.47;;;8.20;99.90;;;;;;5074774;28;20238;-56
2022/11/21 08:08:27;;;;;;;33.87;4.47;;;8.30;99.90;;;;;;5072824;28;20252;-55
2022/11/21 08:10:53;;;;;;;34.80;4.33;;;8.40;99.90;;;;;;5084997;28;20846;-56
2022/11/21 08:13:18;;;;;;;31.93;4.67;;;8.30;99.90;;;;;;5085360;28;20203;-57
2022/11/21 08:15:44;;;;;;;36.27;4.60;;;8.30;99.90;;;;;;5083409;28;20629;-58
2022/11/21 08:18:12;;;;;;;25.07;3.57;;;8.20;99.90;;;;;;5082846;28;20164;-59
2022/11/21 08:20:38;;;;;;;30.27;4.40;;;8.20;99.90;;;;;;5086822;28;20665;-59
2022/11/21 08:23:04;;;;;;;34.70;4.37;;;8.50;99.90;;;;;;5078816;28;20244;-58
2022/11/21 08:25:30;;;;;;;37.73;4.70;;;8.10;99.90;;;;;;5074151;28;20177;-59
2022/11/21 08:27:57;;;;;;;36.57;4.43;;;8.40;99.90;;;;;;5079540;28;20237;-58
2022/11/21 08:30:23;;;;;;;33.67;4.43;;;8.40;99.90;;;;;;5088721;28;20168;-58
2022/11/21 08:32:49;;;;;;;35.00;4.70;;;8.40;99.90;;;;;;5072310;28;20188;-58
2022/11/21 08:35:14;;;;;;;32.70;4.87;;;8.50;99.90;;;;;;5090877;28;20171;-58
2022/11/21 08:37:40;;;;;;;40.90;5.17;;;8.40;99.90;;;;;;5091096;28;20182;-58
2022/11/21 08:40:07;;;;;;;25.00;4.27;;;8.10;99.90;;;;;;5089375;28;20307;-58
2022/11/21 08:42:33;;;;;;;26.20;3.90;;;8.40;99.90;;;;;;5090973;28;20310;-60
2022/11/21 08:45:00;;;;;;;36.03;4.03;;;8.40;99.90;;;;;;5091163;28;20203;-58
2022/11/21 08:47:25;;;;;;;30.23;4.43;;;8.30;99.90;;;;;;5078807;28;20544;-58
2022/11/21 08:49:51;;;;;;;36.67;4.87;;;;;;;;;;5072830;28;20262;-58
2022/11/21 08:52:17;;;;;;;23.00;4.73;;;8.60;99.90;;;;;;5090902;28;20176;-58
2022/11/21 08:54:44;;;;;;;32.40;4.73;;;8.80;99.90;;;;;;5090977;28;20172;-58
2022/11/21 08:57:10;;;;;;;26.17;3.93;;;8.70;99.90;;;;;;5091039;28;20180;-58
2022/11/21 08:59:35;;;;;;;23.23;4.13;;;8.70;99.90;;;;;;5092896;28;20240;-57
2022/11/21 09:02:01;;;;;;;27.23;4.70;;;8.70;99.90;;;;;;5094660;28;20279;-57
2022/11/21 09:04:27;;;;;;;22.00;4.80;;;8.80;99.90;;;;;;5097779;28;20222;-58
2022/11/21 09:06:52;;;;;;;19.23;3.50;;;8.90;99.90;;;;;;5090498;28;20176;-57
2022/11/21 09:09:18;;;;;;;29.47;4.97;;;8.90;99.90;;;;;;5086828;28;20259;-57
2022/11/21 09:11:43;;;;;;;27.03;4.30;;;8.80;99.90;;;;;;5070630;28;20570;-57
2022/11/21 09:19:37;;;;;;;30.30;4.17;;;8.70;99.90;;;;;;5076958;28;20207;-57
2022/11/21 09:22:03;;;;;;;24.13;3.70;;;9.00;99.90;;;;;;5070028;28;20671;-58
2022/11/21 09:24:29;;;;;;;19.37;3.73;;;8.90;99.90;;;;;;5070553;28;20201;-58
2022/11/21 09:26:54;;;;;;;26.93;3.97;;;9.00;99.90;;;;;;5084822;28;20684;-58
2022/11/21 09:29:20;;;;;;;28.00;3.50;;;9.00;99.90;;;;;;5089716;28;20180;-60
2022/11/21 09:31:45;;;;;;;20.40;3.57;;;8.90;99.90;;;;;;5082431;28;20184;-60
2022/11/21 09:34:11;;;;;;;34.80;4.43;;;8.70;99.90;;;;;;5079878;28;20676;-58
2022/11/21 09:36:37;;;;;;;27.93;3.93;;;8.90;99.90;;;;;;5092912;28;20191;-56
2022/11/21 09:39:03;;;;;;;31.67;4.93;;;9.10;99.90;;;;;;5077776;28;20651;-56
2022/11/21 09:42:21;;;;;;;22.53;4.50;;;9.00;99.90;;;;;;5073900;28;20232;-57
2022/11/21 09:44:53;;;;;;;24.60;3.43;;;9.20;99.90;;;;;;5016738;28;20215;-55
2022/11/21 09:47:47;;;;;;;27.70;4.40;;;8.90;99.90;;;;;;5094006;28;20186;-55
2022/11/21 09:50:13;;;;;;;24.13;3.97;;;8.70;99.90;;;;;;5094227;28;20164;-55
2022/11/21 09:52:59;;;;;;;24.30;4.03;;;9.10;99.90;;;;;;5094199;28;20250;-56
2022/11/21 09:55:34;;;;;;;27.07;3.97;;;9.20;99.90;;;;;;5070152;28;20172;-56
2022/11/21 09:58:04;;;;;;;24.33;4.00;;;9.10;99.90;;;;;;5078432;28;20343;-56
2022/11/21 10:00:30;;;;;;;27.50;3.77;;;9.10;99.90;;;;;;5082500;28;20548;-56
2022/11/21 10:02:56;;;;;;;28.77;3.83;;;9.20;99.90;;;;;;5083205;28;20214;-56
2022/11/21 10:05:43;;;;;;;21.00;3.70;;;9.10;99.90;;;;;;5081790;28;20181;-56
2022/11/21 10:08:35;;;;;;;18.47;3.80;;;9.10;99.90;;;;;;5073666;28;20197;-55
2022/11/21 10:11:10;;;;;;;22.13;3.53;;;9.10;99.90;;;;;;5073729;28;20547;-56
2022/11/21 10:13:52;;;;;;;32.83;3.80;;;9.10;99.90;;;;;;5073654;28;20186;-55
2022/11/21 10:16:33;;;;;;;25.07;3.40;;;8.90;99.90;;;;;;5083796;28;20176;-56
2022/11/21 10:19:32;;;;;;;21.57;3.53;;;9.00;99.90;;;;;;5093721;28;20214;-55
2022/11/21 10:22:20;;;;;;;23.80;3.50;;;9.40;99.90;;;;;;5093527;28;20222;-56
2022/11/21 10:25:02;;;;;;;24.53;4.10;;;9.20;99.90;;;;;;5091794;28;20180;-56
2022/11/21 10:27:33;;;;;;;16.70;3.20;;;9.20;99.90;;;;;;5078672;28;20175;-56
2022/11/21 10:30:03;;;;;;;14.27;2.77;;;9.40;99.90;;;;;;5087557;28;20180;-56
2022/11/21 10:32:37;;;;;;;18.17;2.50;;;9.30;99.90;;;;;;5083530;28;20194;-57
2022/11/21 10:35:18;;;;;;;19.03;2.70;;;9.20;99.90;;;;;;5080846;28;20180;-56
2022/11/21 10:37:56;;;;;;;22.43;3.10;;;9.30;99.90;;;;;;5081691;28;20184;-57
2022/11/21 10:40:36;;;;;;;14.43;1.83;;;9.30;99.90;;;;;;5072929;28;20238;-55
2022/11/21 10:46:08;;;;;;;26.03;3.40;;;9.80;99.90;;;;;;5091887;28;20187;-56
2022/11/21 10:48:34;;;;;;;21.57;2.63;;;9.50;99.90;;;;;;5088543;28;20229;-55
2022/11/21 10:51:39;;;;;;;19.97;2.70;;;9.60;99.90;;;;;;5093040;28;20168;-55
2022/11/21 10:54:31;;;;;;;11.40;2.20;;;9.60;99.90;;;;;;5087234;28;20226;-56
2022/11/21 10:57:04;;;;;;;12.77;2.17;;;9.70;99.90;;;;;;5092694;28;20233;-56
2022/11/21 10:59:30;;;;;;;12.07;2.37;;;9.90;99.90;;;;;;5092290;28;20168;-56
2022/11/21 11:02:21;;;;;;;12.77;2.13;;;9.80;99.90;;;;;;5092336;28;20211;-56
2022/11/21 11:04:47;;;;;;;14.90;2.00;;;9.80;99.90;;;;;;5079679;28;20180;-56
2022/11/21 11:07:26;;;;;;;7.57;1.90;;;9.70;99.90;;;;;;5090762;28;20187;-56
2022/11/21 11:10:21;;;;;;;11.87;1.80;;;10.20;99.90;;;;;;5092320;28;20168;-56
2022/11/21 11:15:33;;;;;;;14.63;1.70;;;10.00;99.90;;;;;;5092676;28;20178;-56
2022/11/21 11:18:01;;;;;;;11.33;1.70;;;10.00;99.90;;;;;;5074035;28;20171;-56
2022/11/21 11:20:43;;;;;;;10.60;1.97;;;10.00;99.90;;;;;;5092176;28;20168;-56
2022/11/21 11:23:19;;;;;;;4.70;1.33;;;10.00;99.90;;;;;;5091082;28;20686;-56
2022/11/21 11:25:48;;;;;;;5.30;1.43;;;10.00;99.90;;;;;;5092296;28;20186;-56
2022/11/21 11:28:13;;;;;;;11.20;1.70;;;10.10;99.90;;;;;;5092128;28;20259;-56
2022/11/21 11:30:39;;;;;;;8.40;1.60;;;9.70;99.90;;;;;;5091601;28;20182;-56
2022/11/21 11:33:37;;;;;;;8.23;1.17;;;10.10;99.90;;;;;;5072749;28;20180;-56
2022/11/21 11:36:29;;;;;;;9.20;1.40;;;10.00;99.90;;;;;;5091414;28;20229;-56
2022/11/21 11:38:58;;;;;;;2.37;0.90;;;10.10;99.90;;;;;;5091961;28;20171;-56
2022/11/21 11:47:29;;;;;;;8.60;2.03;;;9.90;99.90;;;;;;5085426;28;20215;-56
2022/11/21 11:50:11;;;;;;;5.50;1.03;;;10.00;99.90;;;;;;5084331;28;20635;-56
2022/11/21 11:53:07;;;;;;;7.40;1.50;;;10.00;99.90;;;;;;5071202;28;20176;-56
2022/11/21 11:55:44;;;;;;;8.87;1.10;;;9.90;99.90;;;;;;5079254;28;20199;-56
2022/11/21 11:58:39;;;;;;;9.07;1.50;;;9.90;99.90;;;;;;5087316;28;20657;-56
2022/11/21 12:01:25;;;;;;;10.80;1.67;;;10.10;99.90;;;;;;5088774;28;20262;-57
2022/11/21 12:04:00;;;;;;;6.13;1.63;;;9.90;99.90;;;;;;5090376;28;20187;-56
2022/11/21 12:06:54;;;;;;;7.23;1.43;;;9.90;99.90;;;;;;5089622;28;20174;-57
2022/11/21 12:09:30;;;;;;;8.30;2.00;;;9.90;99.90;;;;;;5090872;28;20183;-57
2022/11/21 12:12:32;;;;;;;10.50;1.77;;;9.90;99.90;;;;;;5090448;28;20358;-57
2022/11/21 12:17:55;;;;;;;5.47;1.70;;;9.60;99.90;;;;;;5070339;28;20260;-57
2022/11/21 12:20:33;;;;;;;10.50;2.30;;;10.00;99.90;;;;;;5070880;28;20263;-57
2022/11/21 12:22:59;;;;;;;7.80;1.90;;;10.00;99.90;;;;;;5087928;28;20207;-57
2022/11/21 12:25:31;;;;;;;8.57;1.57;;;10.20;99.90;;;;;;5080662;28;20169;-57
2022/11/21 12:27:57;;;;;;;5.97;1.30;;;10.00;99.90;;;;;;5071026;28;20288;-57
2022/11/21 12:30:43;;;;;;;3.17;0.77;;;10.00;99.90;;;;;;5070947;28;20689;-57
2022/11/21 12:33:20;;;;;;;6.33;1.03;;;10.70;99.90;;;;;;5079890;28;20203;-56
2022/11/21 12:36:00;;;;;;;5.93;1.50;;;9.80;99.90;;;;;;5091036;28;20163;-57
2022/11/21 12:38:47;;;;;;;5.53;1.13;;;9.80;99.90;;;;;;5083212;28;20168;-56
2022/11/21 12:44:36;;;;;;;3.83;0.83;;;9.80;99.90;;;;;;5085465;28;20218;-55
2022/11/21 12:47:04;;;;;;;7.13;1.00;;;9.80;99.90;;;;;;5089367;28;20179;-55
2022/11/21 12:55:35;;;;;;;2.53;0.27;;;8.70;99.90;;;;;;5072040;28;20598;-55
2022/11/21 12:58:04;;;;;;;3.50;0.43;;;8.50;99.90;;;;;;5074815;28;20191;-56
2022/11/21 13:00:47;;;;;;;4.37;0.63;;;8.50;99.90;;;;;;5088272;28;20214;-56
2022/11/21 13:03:43;;;;;;;7.93;0.60;;;8.70;99.90;;;;;;5079645;28;20211;-56
2022/11/21 13:06:22;;;;;;;5.33;0.90;;;8.70;99.90;;;;;;5084678;28;20211;-56
2022/11/21 13:08:50;;;;;;;8.00;0.90;;;8.90;99.90;;;;;;5090828;28;20168;-56
2022/11/21 13:14:44;;;;;;;11.47;1.27;;;9.00;99.90;;;;;;5094833;28;20174;-56
2022/11/21 13:17:10;;;;;;;7.67;1.50;;;9.00;99.90;;;;;;5087572;28;20185;-56
2022/11/21 13:19:48;;;;;;;10.40;1.77;;;9.60;99.90;;;;;;5080737;28;20704;-56
2022/11/21 13:22:36;;;;;;;6.80;1.30;;;9.10;99.90;;;;;;5078051;28;20223;-56
2022/11/21 13:25:30;;;;;;;21.67;2.53;;;9.40;99.90;;;;;;5073924;28;20164;-56
2022/11/21 13:28:18;;;;;;;23.80;2.47;;;9.60;99.90;;;;;;5073933;28;20165;-56
2022/11/21 13:30:54;;;;;;;16.10;2.87;;;9.70;99.90;;;;;;5078364;28;20168;-56
2022/11/21 13:33:35;;;;;;;15.47;2.80;;;9.40;99.90;;;;;;5094039;28;20642;-56
2022/11/21 13:36:08;;;;;;;23.07;1.97;;;9.80;99.90;;;;;;5094313;28;20345;-56
2022/11/21 13:38:55;;;;;;;27.07;3.67;;;9.90;99.90;;;;;;5088273;28;20211;-56
2022/11/21 13:44:40;;;;;;;28.63;2.87;;;9.90;99.90;;;;;;5083548;28;20281;-56